Archival Weather

Vermilion Rgnl

Danville, Illinois (KDNV)

Report from: Saturday, April 13, 2024 12:15 AM CDT
Current time: Sunday, July 14, 2024 4:53 AM CDT

Current weather – Weather history – Daily summaries
Weather forecast

Temperature9.1°C (48.4°F)
Wind chill7.1°C (44.8°F)
Dew point3.2°C (37.8°F)
Winds 7 kts (3.6 m/s, 8.1 mph) West (270°)
Visibility10 mi. (16.1 km)
Clouds Sky clear
Altimeter30.05 in.Hg (1018 mB)
Relative humidity67 %
Density altitude-740 ft. (-226 m)
Remarks Fully automated report
Automated weather observing station with precipitation discriminator
Flight conditions Visual Meteorological Conditions
Raw dataKDNV 130515Z AUTO 27007KT 10SM CLR 09/03 A3005 RMK AO2 T00910032
An error has occurred. This application may no longer respond until reloaded. Reload 🗙